createdAt,value
2022-08-05T00:00:00.498Z,3.00
2022-08-05T00:02:28.744Z,3.80
2022-08-05T00:04:57.895Z,3.37
2022-08-05T00:07:59.747Z,3.93
2022-08-05T00:10:15.236Z,3.30
2022-08-05T00:12:55.637Z,3.03
2022-08-05T00:15:55.932Z,3.40
2022-08-05T00:18:21.764Z,4.17
2022-08-05T00:20:51.192Z,3.40
2022-08-05T00:23:44.267Z,3.80
2022-08-05T00:26:09.670Z,3.63
2022-08-05T00:28:37.942Z,3.60
2022-08-05T00:31:08.232Z,3.10
2022-08-05T00:34:53.308Z,3.27
2022-08-05T00:37:10.602Z,3.50
2022-08-05T00:39:14.910Z,3.30
2022-08-05T00:41:54.964Z,2.80
2022-08-05T00:44:26.086Z,3.70
2022-08-05T00:47:03.851Z,3.20
2022-08-05T00:49:51.080Z,3.40
2022-08-05T00:52:28.324Z,3.00
2022-08-05T00:54:56.961Z,3.80
2022-08-05T00:57:38.076Z,4.27
2022-08-05T01:00:17.081Z,3.07
2022-08-05T01:02:47.867Z,3.90
2022-08-05T01:05:18.178Z,4.00
2022-08-05T01:08:40.761Z,4.53
2022-08-05T01:10:41.570Z,4.20
2022-08-05T01:13:27.233Z,4.03
2022-08-05T01:16:26.236Z,4.00
2022-08-05T01:19:00.865Z,3.40
2022-08-05T01:21:55.404Z,3.90
2022-08-05T01:24:42.690Z,3.63
2022-08-05T01:27:26.750Z,4.10
2022-08-05T01:30:02.637Z,4.30
2022-08-05T01:32:35.721Z,3.90
2022-08-05T01:35:10.759Z,3.67
2022-08-05T01:37:44.840Z,3.70
2022-08-05T01:40:18.008Z,4.73
2022-08-05T01:42:47.773Z,3.70
2022-08-05T01:45:17.831Z,4.37
2022-08-05T01:47:54.588Z,4.10
2022-08-05T01:50:28.808Z,3.77
2022-08-05T01:53:01.428Z,3.90
2022-08-05T01:55:36.202Z,3.53
2022-08-05T01:58:11.158Z,4.10
2022-08-05T02:00:48.669Z,3.53
2022-08-05T02:03:24.301Z,4.07
2022-08-05T02:05:57.815Z,3.87
2022-08-05T02:08:31.102Z,3.40
2022-08-05T02:11:06.037Z,3.77
2022-08-05T02:13:53.316Z,3.37
2022-08-05T02:16:27.613Z,3.90
2022-08-05T02:18:59.660Z,3.40
2022-08-05T02:21:43.127Z,4.87
2022-08-05T02:24:19.502Z,3.77
2022-08-05T02:26:56.540Z,4.47
2022-08-05T02:30:00.052Z,4.50
2022-08-05T02:32:24.053Z,3.80
2022-08-05T02:34:59.609Z,3.83
2022-08-05T02:37:33.560Z,3.87
2022-08-05T02:40:04.122Z,3.80
2022-08-05T02:42:36.158Z,3.40
2022-08-05T02:45:05.501Z,3.10
2022-08-05T02:48:06.901Z,3.63
2022-08-05T02:50:26.657Z,4.07
2022-08-05T02:52:55.244Z,3.93
2022-08-05T02:55:59.542Z,4.00
2022-08-05T02:58:15.575Z,3.70
2022-08-05T03:00:46.167Z,4.47
2022-08-05T03:03:17.547Z,3.80
2022-08-05T03:06:53.703Z,4.17
2022-08-05T03:08:36.975Z,4.27
2022-08-05T03:11:56.505Z,3.50
2022-08-05T03:14:02.675Z,4.07
2022-08-05T03:16:31.669Z,3.50
2022-08-05T03:19:01.115Z,3.50
2022-08-05T03:21:41.653Z,4.13
2022-08-05T03:24:18.122Z,3.63
2022-08-05T03:26:54.903Z,4.37
2022-08-05T03:29:23.114Z,3.83
2022-08-05T03:31:56.162Z,4.40
2022-08-05T03:34:28.159Z,3.80
2022-08-05T03:36:57.009Z,4.07
2022-08-05T03:39:27.149Z,3.83
2022-08-05T03:41:56.531Z,4.10
2022-08-05T03:44:24.839Z,3.63
2022-08-05T03:46:57.320Z,3.80
2022-08-05T03:49:31.145Z,3.97
2022-08-05T03:52:36.905Z,3.97
2022-08-05T03:56:04.332Z,4.03
2022-08-05T03:58:05.032Z,3.77
2022-08-05T04:00:33.919Z,3.50
2022-08-05T04:03:04.332Z,3.90
2022-08-05T04:05:36.026Z,3.90
2022-08-05T04:08:14.865Z,3.63
2022-08-05T04:10:54.511Z,3.97
2022-08-05T04:13:23.412Z,4.00
2022-08-05T04:16:02.731Z,3.50
2022-08-05T04:18:32.381Z,3.83
2022-08-05T04:21:05.358Z,3.63
2022-08-05T04:24:05.643Z,4.40
2022-08-05T04:26:23.370Z,4.10
2022-08-05T04:28:52.077Z,4.10
2022-08-05T04:31:20.391Z,4.57
2022-08-05T04:34:17.509Z,3.60
2022-08-05T04:36:49.538Z,3.73
2022-08-05T04:39:18.493Z,4.23
2022-08-05T04:41:48.020Z,4.10
2022-08-05T04:44:21.321Z,3.83
2022-08-05T04:46:57.122Z,4.40
2022-08-05T04:49:38.965Z,3.67
2022-08-05T04:52:15.781Z,4.07
2022-08-05T04:54:43.657Z,4.30
2022-08-05T04:57:11.665Z,4.17
2022-08-05T04:59:40.834Z,4.87
2022-08-05T05:02:36.358Z,4.10
2022-08-05T05:05:02.307Z,4.90
2022-08-05T05:07:35.653Z,4.13
2022-08-05T05:10:05.449Z,4.33
2022-08-05T05:12:36.715Z,3.23
2022-08-05T05:15:06.160Z,4.33
2022-08-05T05:17:56.205Z,3.20
2022-08-05T05:20:28.325Z,3.57
2022-08-05T05:22:58.552Z,2.73
2022-08-05T05:25:40.257Z,3.50
2022-08-05T05:28:09.298Z,3.00
2022-08-05T05:30:37.662Z,3.13
2022-08-05T05:33:14.159Z,3.10
2022-08-05T05:35:45.175Z,3.20
2022-08-05T05:38:14.871Z,2.87
2022-08-05T05:40:51.438Z,3.30
2022-08-05T05:43:28.144Z,2.83
2022-08-05T05:46:15.784Z,3.40
2022-08-05T05:48:44.700Z,3.40
2022-08-05T05:51:19.779Z,3.10
2022-08-05T05:53:57.226Z,3.37
2022-08-05T05:56:32.806Z,3.43
2022-08-05T05:59:05.594Z,2.93
2022-08-05T06:01:37.910Z,3.33
2022-08-05T06:04:07.940Z,3.60
2022-08-05T06:06:36.152Z,3.10
2022-08-05T06:09:06.205Z,3.50
2022-08-05T06:11:39.340Z,3.83
2022-08-05T06:14:07.458Z,3.03
2022-08-05T06:16:37.164Z,3.27
2022-08-05T06:19:07.158Z,3.87
2022-08-05T06:21:38.756Z,3.07
2022-08-05T06:24:12.842Z,3.27
2022-08-05T06:26:51.800Z,3.70
2022-08-05T06:29:26.454Z,3.60
2022-08-05T06:32:20.984Z,3.90
2022-08-05T06:34:56.331Z,3.10
2022-08-05T06:37:52.313Z,4.60
2022-08-05T06:40:18.460Z,3.87
2022-08-05T06:42:52.019Z,4.20
2022-08-05T06:46:02.950Z,3.83
2022-08-05T06:48:37.220Z,4.50
2022-08-05T06:50:57.036Z,3.83
2022-08-05T06:53:28.357Z,4.43
2022-08-05T06:55:59.354Z,3.50
2022-08-05T06:58:35.104Z,4.00
2022-08-05T07:01:06.656Z,3.73
2022-08-05T07:03:35.537Z,3.93
2022-08-05T07:06:06.266Z,3.60
2022-08-05T07:08:42.632Z,3.77
2022-08-05T07:11:15.295Z,4.00
2022-08-05T07:14:01.687Z,3.70
2022-08-05T07:17:57.117Z,3.73
2022-08-05T07:22:28.614Z,4.17
2022-08-05T07:24:59.345Z,4.80
2022-08-05T07:27:58.023Z,3.93
2022-08-05T07:30:27.529Z,3.93
2022-08-05T07:32:58.563Z,4.30
2022-08-05T07:36:04.657Z,3.70
2022-08-05T07:38:26.366Z,4.10
2022-08-05T07:42:08.288Z,3.50
2022-08-05T07:43:52.624Z,4.53
2022-08-05T07:46:25.074Z,3.87
2022-08-05T07:49:01.878Z,4.00
2022-08-05T07:51:36.699Z,4.07
2022-08-05T07:54:09.526Z,3.63
2022-08-05T07:57:01.271Z,3.60
2022-08-05T07:59:38.580Z,3.80
2022-08-05T08:02:15.385Z,3.30
2022-08-05T08:04:46.168Z,3.80
2022-08-05T08:07:17.933Z,3.23
2022-08-05T08:09:46.133Z,3.33
2022-08-05T08:12:33.323Z,3.90
2022-08-05T08:15:04.697Z,3.53
2022-08-05T08:17:37.462Z,3.40
2022-08-05T08:20:21.888Z,3.50
2022-08-05T08:22:55.808Z,3.93
2022-08-05T08:25:26.965Z,3.43
2022-08-05T08:28:18.346Z,3.50
2022-08-05T08:30:49.826Z,3.57
2022-08-05T08:33:19.043Z,4.07
2022-08-05T08:35:52.761Z,3.43
2022-08-05T08:38:32.323Z,2.80
2022-08-05T08:41:07.158Z,3.13
2022-08-05T08:45:20.002Z,3.23
2022-08-05T08:46:28.089Z,3.33
2022-08-05T08:49:07.841Z,3.37
2022-08-05T08:52:06.116Z,3.20
2022-08-05T08:54:37.891Z,3.37
2022-08-05T08:57:13.480Z,3.00
2022-08-05T08:59:47.378Z,3.30
2022-08-05T09:02:21.032Z,3.10
2022-08-05T09:05:16.359Z,3.20
2022-08-05T09:07:57.471Z,2.93
2022-08-05T09:10:27.053Z,3.60
2022-08-05T09:13:04.930Z,3.20
2022-08-05T09:15:36.912Z,3.20
2022-08-05T09:18:09.394Z,3.47
2022-08-05T09:20:38.408Z,3.37
2022-08-05T09:23:18.754Z,3.30
2022-08-05T09:26:03.110Z,3.90
2022-08-05T09:28:35.923Z,3.17
2022-08-05T09:31:22.299Z,2.80
2022-08-05T09:33:58.580Z,2.70
2022-08-05T09:36:53.972Z,3.13
2022-08-05T09:39:27.805Z,2.60
2022-08-05T09:42:17.299Z,2.33
2022-08-05T09:44:50.696Z,2.17
2022-08-05T09:47:21.276Z,2.73
2022-08-05T09:50:00.487Z,2.63
2022-08-05T09:52:32.412Z,2.10
2022-08-05T09:55:55.571Z,2.13
2022-08-05T09:57:54.559Z,2.23
2022-08-05T10:00:26.735Z,2.70
2022-08-05T10:02:57.974Z,2.60
2022-08-05T10:05:32.940Z,2.73
2022-08-05T10:08:34.488Z,2.33
2022-08-05T10:10:54.474Z,3.20
2022-08-05T10:13:45.605Z,2.70
2022-08-05T10:16:34.288Z,2.67
2022-08-05T10:19:11.743Z,2.80
2022-08-05T10:21:41.318Z,2.63
2022-08-05T10:24:13.015Z,2.30
2022-08-05T10:26:51.934Z,2.40
2022-08-05T10:29:23.894Z,2.90
2022-08-05T10:32:52.970Z,2.43
2022-08-05T10:35:00.807Z,2.47
2022-08-05T10:37:44.475Z,2.90
2022-08-05T10:40:28.072Z,2.80
2022-08-05T10:43:04.732Z,2.37
2022-08-05T10:45:39.985Z,2.70
2022-08-05T10:48:38.407Z,2.87
2022-08-05T10:51:23.055Z,2.67
2022-08-05T10:54:01.071Z,2.53
2022-08-05T10:56:49.469Z,2.90
2022-08-05T11:00:02.076Z,2.97
2022-08-05T11:02:37.470Z,2.53
2022-08-05T11:05:06.465Z,2.60
2022-08-05T11:08:01.760Z,2.47
2022-08-05T11:10:27.562Z,2.27
2022-08-05T11:12:57.722Z,2.47
2022-08-05T11:15:59.054Z,2.57
2022-08-05T11:18:35.315Z,2.80
2022-08-05T11:21:11.813Z,2.60
2022-08-05T11:24:03.913Z,2.60
2022-08-05T11:26:34.059Z,2.10
2022-08-05T11:29:06.682Z,2.67
2022-08-05T11:31:57.608Z,2.37
2022-08-05T11:34:38.908Z,2.40
2022-08-05T11:38:30.913Z,2.33
2022-08-05T11:40:02.701Z,2.70
2022-08-05T11:42:37.834Z,2.13
2022-08-05T11:45:14.339Z,2.17
2022-08-05T11:47:55.237Z,2.37
2022-08-05T11:50:23.488Z,2.37
2022-08-05T11:52:57.771Z,2.37
2022-08-05T11:55:32.040Z,2.17
2022-08-05T11:58:10.862Z,2.20
2022-08-05T12:00:41.551Z,2.00
2022-08-05T12:03:29.132Z,2.30
2022-08-05T12:06:01.865Z,2.20
2022-08-05T12:08:31.409Z,2.23
2022-08-05T12:11:05.431Z,2.10
2022-08-05T12:13:48.909Z,2.33
2022-08-05T12:16:25.547Z,2.40
2022-08-05T12:18:56.028Z,2.07
2022-08-05T12:21:29.974Z,2.30
2022-08-05T12:24:04.319Z,2.73
2022-08-05T12:26:33.988Z,2.40
2022-08-05T12:29:04.585Z,2.77
2022-08-05T12:31:46.057Z,2.90
2022-08-05T12:34:21.577Z,2.07
2022-08-05T12:36:53.801Z,2.80
2022-08-05T12:39:23.689Z,2.80
2022-08-05T12:41:59.412Z,2.73
2022-08-05T12:44:34.024Z,2.70
2022-08-05T12:47:03.638Z,2.50
2022-08-05T12:50:03.968Z,2.43
2022-08-05T12:52:37.764Z,2.80
2022-08-05T12:55:22.578Z,2.50
2022-08-05T12:58:50.934Z,2.50
2022-08-05T13:02:03.202Z,2.87
2022-08-05T13:03:38.905Z,3.07
2022-08-05T13:06:10.427Z,3.00
2022-08-05T13:08:40.069Z,3.00
2022-08-05T13:11:08.768Z,3.50
2022-08-05T13:14:06.341Z,2.73
2022-08-05T13:16:29.634Z,3.47
2022-08-05T13:18:58.558Z,3.40
2022-08-05T13:21:28.160Z,2.90
2022-08-05T13:24:06.239Z,2.90
2022-08-05T13:26:37.081Z,3.27
2022-08-05T13:29:05.473Z,2.50
2022-08-05T13:32:04.549Z,3.03
2022-08-05T13:34:25.952Z,3.10
2022-08-05T13:36:54.635Z,2.60
2022-08-05T13:40:13.027Z,2.30
2022-08-05T13:42:14.585Z,2.50
2022-08-05T13:44:45.346Z,2.70
2022-08-05T13:47:35.541Z,2.50
2022-08-05T13:50:06.454Z,3.30
2022-08-05T13:52:37.871Z,2.40
2022-08-05T13:55:07.714Z,2.53
2022-08-05T13:57:50.988Z,2.73
2022-08-05T14:00:27.591Z,2.80
2022-08-05T14:02:57.825Z,2.60
2022-08-05T14:05:48.304Z,2.73
2022-08-05T14:08:20.148Z,2.80
2022-08-05T14:10:49.070Z,3.20
2022-08-05T14:13:17.037Z,2.60
2022-08-05T14:16:04.404Z,2.93
2022-08-05T14:18:35.282Z,2.83
2022-08-05T14:22:06.949Z,2.77
2022-08-05T14:23:54.065Z,3.50
2022-08-05T14:26:36.920Z,3.90
2022-08-05T14:29:16.003Z,3.37
2022-08-05T14:32:03.971Z,3.23
2022-08-05T14:34:35.242Z,3.50
2022-08-05T14:37:04.389Z,3.00
2022-08-05T14:39:50.191Z,3.37
2022-08-05T14:42:21.823Z,3.23
2022-08-05T14:44:50.033Z,3.20
2022-08-05T14:48:02.478Z,3.53
2022-08-05T14:50:17.670Z,3.30
2022-08-05T14:52:53.609Z,3.10
2022-08-05T14:55:25.436Z,3.77
2022-08-05T14:57:54.323Z,3.33
2022-08-05T15:00:25.225Z,3.33
2022-08-05T15:02:56.561Z,3.53
2022-08-05T15:05:29.810Z,3.17
2022-08-05T15:08:11.503Z,3.47
2022-08-05T15:10:46.166Z,3.93
2022-08-05T15:13:14.904Z,3.53
2022-08-05T15:15:55.283Z,3.57
2022-08-05T15:18:24.982Z,4.20
2022-08-05T15:20:54.291Z,3.53
2022-08-05T15:23:22.271Z,4.20
2022-08-05T15:25:52.352Z,4.03
2022-08-05T15:28:27.262Z,3.97
2022-08-05T15:30:55.631Z,3.87
2022-08-05T15:34:05.867Z,4.67
2022-08-05T15:36:17.378Z,4.10
2022-08-05T15:41:01.607Z,3.63
2022-08-05T15:41:55.555Z,4.60
2022-08-05T15:44:25.574Z,4.20
2022-08-05T15:46:55.779Z,4.70
2022-08-05T15:49:48.127Z,4.60
2022-08-05T15:52:16.785Z,4.23
2022-08-05T15:54:57.779Z,4.20
2022-08-05T15:57:27.795Z,4.33
2022-08-05T16:00:02.854Z,4.70
2022-08-05T16:02:32.921Z,4.70
2022-08-05T16:05:01.176Z,4.30
2022-08-05T16:07:30.461Z,4.87
2022-08-05T16:09:58.548Z,5.00
2022-08-05T16:12:26.707Z,4.27
2022-08-05T16:14:55.025Z,4.10
2022-08-05T16:17:24.328Z,5.00
2022-08-05T16:20:05.608Z,5.10
2022-08-05T16:22:40.583Z,5.30
2022-08-05T16:25:11.045Z,5.07
2022-08-05T16:28:00.715Z,5.20
2022-08-05T16:30:28.716Z,4.93
2022-08-05T16:32:57.649Z,6.40
2022-08-05T16:35:28.457Z,5.57
2022-08-05T16:38:18.543Z,6.13
2022-08-05T16:40:55.378Z,5.90
2022-08-05T16:43:30.170Z,5.70
2022-08-05T16:46:04.729Z,5.77
2022-08-05T16:48:38.920Z,5.97
2022-08-05T16:51:09.186Z,5.27
2022-08-05T16:54:06.329Z,5.47
2022-08-05T16:56:30.520Z,5.97
2022-08-05T16:58:59.175Z,5.63
2022-08-05T17:01:53.264Z,5.67
2022-08-05T17:04:18.641Z,5.60
2022-08-05T17:06:53.282Z,5.90
2022-08-05T17:09:23.347Z,6.40
2022-08-05T17:11:56.017Z,5.87
2022-08-05T17:14:36.683Z,6.27
2022-08-05T17:17:06.844Z,6.33
2022-08-05T17:19:45.590Z,6.97
2022-08-05T17:22:24.932Z,7.03
2022-08-05T17:24:57.573Z,7.20
2022-08-05T17:27:27.293Z,6.80
2022-08-05T17:30:02.489Z,6.77
2022-08-05T17:32:32.182Z,7.40
2022-08-05T17:35:02.599Z,7.60
2022-08-05T17:37:41.450Z,7.63
2022-08-05T17:40:17.218Z,8.03
2022-08-05T17:42:49.850Z,7.77
2022-08-05T17:45:21.842Z,7.40
2022-08-05T17:47:54.342Z,7.70
2022-08-05T17:50:28.869Z,7.57
2022-08-05T17:53:00.697Z,8.27
2022-08-05T17:55:34.291Z,8.03
2022-08-05T17:58:05.488Z,7.60
2022-08-05T18:00:35.438Z,8.93
2022-08-05T18:03:04.686Z,6.77
2022-08-05T18:05:36.309Z,7.43
2022-08-05T18:08:04.620Z,7.60
2022-08-05T18:10:33.883Z,5.80
2022-08-05T18:13:12.286Z,6.73
2022-08-05T18:15:40.540Z,7.30
2022-08-05T18:18:11.273Z,6.10
2022-08-05T18:20:39.892Z,6.30
2022-08-05T18:23:09.045Z,5.47
2022-08-05T18:25:45.369Z,5.00
2022-08-05T18:28:16.037Z,5.33
2022-08-05T18:30:45.454Z,5.87
2022-08-05T18:33:23.085Z,5.53
2022-08-05T18:36:00.724Z,5.90
2022-08-05T18:38:32.099Z,5.00
2022-08-05T18:41:57.640Z,5.07
2022-08-05T18:43:49.408Z,5.07
2022-08-05T18:46:19.916Z,4.90
2022-08-05T18:48:51.850Z,5.10
2022-08-05T18:52:06.035Z,4.90
2022-08-05T18:54:28.430Z,4.20
2022-08-05T18:57:01.661Z,4.50
2022-08-05T18:59:44.355Z,4.20
2022-08-05T19:02:28.101Z,4.20
2022-08-05T19:05:03.250Z,4.07
2022-08-05T19:07:49.953Z,4.13
2022-08-05T19:10:28.037Z,3.80
2022-08-05T19:12:58.366Z,3.63
2022-08-05T19:15:59.879Z,4.17
2022-08-05T19:18:20.855Z,3.00
2022-08-05T19:20:52.137Z,3.90
2022-08-05T19:24:04.461Z,3.53
2022-08-05T19:26:09.471Z,3.10
2022-08-05T19:28:43.307Z,3.30
2022-08-05T19:31:13.645Z,3.10
2022-08-05T19:33:48.559Z,3.60
2022-08-05T19:36:24.523Z,2.93
2022-08-05T19:38:52.456Z,3.10
2022-08-05T19:41:22.062Z,2.70
2022-08-05T19:44:13.466Z,2.53
2022-08-05T19:46:43.720Z,3.00
2022-08-05T19:49:12.516Z,2.60
2022-08-05T19:52:08.740Z,2.60
2022-08-05T19:54:34.208Z,2.50
2022-08-05T19:57:06.814Z,2.20
2022-08-05T19:59:55.785Z,2.67
2022-08-05T20:02:31.414Z,2.87
2022-08-05T20:04:59.952Z,2.57
2022-08-05T20:07:46.323Z,1.80
2022-08-05T20:10:17.353Z,2.20
2022-08-05T20:12:49.261Z,2.03
2022-08-05T20:15:48.452Z,2.40
2022-08-05T20:18:10.671Z,2.00
2022-08-05T20:20:57.629Z,2.07
2022-08-05T20:23:39.293Z,2.10
2022-08-05T20:26:17.307Z,2.00
2022-08-05T20:28:48.383Z,1.60
2022-08-05T20:31:21.764Z,1.63
2022-08-05T20:33:56.864Z,1.70
2022-08-05T20:36:25.709Z,1.87
2022-08-05T20:38:57.969Z,1.77
2022-08-05T20:41:43.919Z,1.57
2022-08-05T20:44:19.072Z,1.63
2022-08-05T20:47:00.214Z,1.63
2022-08-05T20:49:28.289Z,1.50
2022-08-05T20:51:57.482Z,2.00
2022-08-05T20:54:43.308Z,1.90
2022-08-05T20:57:14.995Z,2.00
2022-08-05T21:00:19.638Z,1.53
2022-08-05T21:02:56.912Z,1.40
2022-08-05T21:05:25.155Z,1.27
2022-08-05T21:07:53.134Z,1.73
2022-08-05T21:10:21.663Z,1.60
2022-08-05T21:12:57.986Z,1.90
2022-08-05T21:15:37.089Z,1.90
2022-08-05T21:18:06.535Z,1.27
2022-08-05T21:20:35.166Z,1.90
2022-08-05T21:23:03.666Z,1.70
2022-08-05T21:25:33.906Z,1.60
2022-08-05T21:28:02.942Z,1.40
2022-08-05T21:30:31.399Z,1.50
2022-08-05T21:32:59.840Z,1.33
2022-08-05T21:35:55.851Z,1.87
2022-08-05T21:38:19.943Z,1.43
2022-08-05T21:40:47.959Z,1.60
2022-08-05T21:43:24.139Z,1.70
2022-08-05T21:45:57.545Z,1.73
2022-08-05T21:48:28.523Z,1.73
2022-08-05T21:50:58.002Z,1.70
2022-08-05T21:53:28.030Z,1.60
2022-08-05T21:56:04.427Z,1.93
2022-08-05T21:58:34.657Z,2.07
2022-08-05T22:01:05.833Z,1.63
2022-08-05T22:03:48.588Z,1.60
2022-08-05T22:06:22.601Z,1.83
2022-08-05T22:08:52.114Z,1.30
2022-08-05T22:11:35.525Z,1.40
2022-08-05T22:14:34.069Z,1.50
2022-08-05T22:16:53.051Z,1.60
2022-08-05T22:20:01.157Z,1.33
2022-08-05T22:22:15.886Z,2.10
2022-08-05T22:25:02.027Z,1.70
2022-08-05T22:28:09.216Z,1.73
2022-08-05T22:30:35.788Z,1.73
2022-08-05T22:33:04.520Z,1.63
2022-08-05T22:35:48.771Z,1.60
2022-08-05T22:38:19.588Z,1.60
2022-08-05T22:40:50.016Z,1.90
2022-08-05T22:43:36.771Z,1.47
2022-08-05T22:46:12.029Z,1.70
2022-08-05T22:48:43.841Z,1.50
2022-08-05T22:51:15.764Z,1.67
2022-08-05T22:53:55.123Z,1.63
2022-08-05T22:56:30.650Z,1.40
2022-08-05T22:59:02.880Z,1.50
2022-08-05T23:02:04.358Z,1.67
2022-08-05T23:04:19.674Z,1.67
2022-08-05T23:06:48.053Z,1.70
2022-08-05T23:09:27.920Z,2.00
2022-08-05T23:12:05.842Z,1.47
2022-08-05T23:14:34.121Z,1.90
2022-08-05T23:17:23.961Z,2.00
2022-08-05T23:19:56.306Z,1.90
2022-08-05T23:22:27.104Z,2.00
2022-08-05T23:24:57.009Z,1.80
2022-08-05T23:27:31.562Z,2.00
2022-08-05T23:30:14.521Z,2.10
2022-08-05T23:32:45.223Z,2.10
2022-08-05T23:35:18.772Z,1.60
2022-08-05T23:37:46.676Z,2.00
2022-08-05T23:40:50.078Z,1.87
2022-08-05T23:43:25.456Z,1.90
2022-08-05T23:46:20.592Z,1.97
2022-08-05T23:49:01.076Z,1.80
2022-08-05T23:51:51.703Z,2.00
2022-08-05T23:54:25.913Z,1.60
2022-08-05T23:56:58.250Z,1.60
